Estación Meteorológica Peña el Pijo (Robertgarden) [ 02/03/23 04:22:03 CET ]

Fecha Hora Presion(HPa) Temp (°C) Humedad % Rocio (°C) Viento ( m/s) Direccion Lluvia 1Hora(mm) Lluvia 24H(mm) LLuvia Total(mm)
2012-Aug-23 01:01:11 1013.400 17.4 80 13.9       2.07 178.19
2012-Aug-23 02:01:17 1013.200 16.4 78 12.6       2.07 178.19
2012-Aug-23 03:01:42 1012.700 16.2 76 12.0       2.07 178.19
2012-Aug-23 04:03:13 1012.500 15.3 81 12.1       2.07 178.19
2012-Aug-23 05:01:11 1012.400 14.5 84 11.8       2.07 178.19
2012-Aug-23 06:01:16 1012.000 13.9 86 11.6       2.07 178.19
2012-Aug-23 07:01:16 1011.800 13.9 87 11.8       2.07 178.19
2012-Aug-23 08:01:18 1012.000 13.8 85 11.3       2.07 178.19
2012-Aug-23 09:01:18 1011.900 17.6 81 14.3       2.07 178.19
2012-Aug-23 10:01:12 1011.700 24.2 65 17.2       2.07 178.19
2012-Aug-23 11:01:14 1011.700 29.4 45 16.2       2.07 178.19
2012-Aug-23 12:01:18 1011.400 32.6 33 14.6       2.07 178.19
2012-Aug-23 13:01:23 1011.300 33.6 24 10.0       2.07 178.19
2012-Aug-23 14:01:16 1010.900 35.8 20 9.4       2.07 178.19
2012-Aug-23 15:01:14 1010.500 37.2 18 8.6       2.07 178.19
2012-Aug-23 16:01:17 1010.000 38.4 18 9.5       2.07 178.19
2012-Aug-23 17:01:17 1010.000 36.9 20 10.3       2.07 178.19
2012-Aug-23 18:01:12 1009.600 37.1 20 10.5       2.07 178.19
2012-Aug-23 19:01:17 1009.800 34.5 18 6.3         178.19
2012-Aug-23 20:01:11 1009.800 30.3 20 4.9         178.19
2012-Aug-23 21:01:17 1010.500 26.8 26 5.5         178.19
2012-Aug-23 22:01:10 1010.700 23.4 32 5.7         178.19
2012-Aug-23 23:01:14 1011.400 20.9 42 7.5         178.19

Temperatura Máxima:38°    Temperatura Mínima:13°
Presión Máxima:1013.400 Hpa    Presión Mínima:1009.600 Hpa


Volver